02PN weather

Peco Berwyn Heliport
Berwyn, Pennsylvania, United States

Public forecast

Using degrees Fahrenheit for public forecast. Weather courtesy of forecast.io.

METAR (pilot weather report)

Closest report is Brandywine Airport, 7.5 nm (13.9 km) SW. Retrieved 2019/07/16 16:35 UTC (0 seconds ago):

KOQN 161635Z AUTO 23006KT 10SM CLR 30/19 A3010 RMK AO2

TAF (pilot weather forecast)

Closest forecast is Philadelphia International Airport, 15.4 nm (28.6 km) SE. Retrieved 2019/07/16 12:24 UTC (4 hours ago):

TAF KPHL 161120Z 1612/1718 VRB04KT P6SM FEW250 FM161500 23008KT P6SM FEW050 SCT160 FM170200 21005KT P6SM SCT100 BKN140 FM170600 VRB04KT P6SM BKN100 FM171200 23007KT P6SM FEW050 BKN250